sensor_id;sensor_type;location;lat;lon;timestamp;P1;durP1;ratioP1;P2;durP2;ratioP2
32032;SDS011;31720;52.638;9.216;2024-01-30T00:01:35;9.90;;;5.30;;
32032;SDS011;31720;52.638;9.216;2024-01-30T00:04:36;12.27;;;5.15;;
32032;SDS011;31720;52.638;9.216;2024-01-30T00:07:37;14.55;;;5.75;;
32032;SDS011;31720;52.638;9.216;2024-01-30T00:10:40;12.07;;;5.68;;
32032;SDS011;31720;52.638;9.216;2024-01-30T00:13:41;11.88;;;6.07;;
32032;SDS011;31720;52.638;9.216;2024-01-30T00:16:43;9.82;;;5.65;;
32032;SDS011;31720;52.638;9.216;2024-01-30T00:19:45;14.25;;;5.55;;
32032;SDS011;31720;52.638;9.216;2024-01-30T00:22:46;13.45;;;6.68;;
32032;SDS011;31720;52.638;9.216;2024-01-30T00:25:49;11.40;;;5.38;;
32032;SDS011;31720;52.638;9.216;2024-01-30T00:28:51;13.27;;;5.20;;
32032;SDS011;31720;52.638;9.216;2024-01-30T00:31:52;10.90;;;5.70;;
32032;SDS011;31720;52.638;9.216;2024-01-30T00:34:53;11.95;;;4.93;;
32032;SDS011;31720;52.638;9.216;2024-01-30T00:37:55;14.13;;;6.35;;
32032;SDS011;31720;52.638;9.216;2024-01-30T00:40:58;9.60;;;5.50;;
32032;SDS011;31720;52.638;9.216;2024-01-30T00:44:00;14.95;;;6.28;;
32032;SDS011;31720;52.638;9.216;2024-01-30T00:47:01;12.57;;;5.85;;
32032;SDS011;31720;52.638;9.216;2024-01-30T00:50:02;12.85;;;6.95;;
32032;SDS011;31720;52.638;9.216;2024-01-30T00:53:04;14.23;;;5.30;;
32032;SDS011;31720;52.638;9.216;2024-01-30T00:56:07;15.57;;;5.53;;
32032;SDS011;31720;52.638;9.216;2024-01-30T00:59:08;13.63;;;5.78;;
32032;SDS011;31720;52.638;9.216;2024-01-30T01:02:10;13.00;;;5.90;;
32032;SDS011;31720;52.638;9.216;2024-01-30T01:05:11;13.40;;;6.53;;
32032;SDS011;31720;52.638;9.216;2024-01-30T01:08:12;13.48;;;6.25;;
32032;SDS011;31720;52.638;9.216;2024-01-30T01:11:16;12.77;;;5.90;;
32032;SDS011;31720;52.638;9.216;2024-01-30T01:14:17;11.55;;;5.85;;
32032;SDS011;31720;52.638;9.216;2024-01-30T01:17:19;12.20;;;5.47;;
32032;SDS011;31720;52.638;9.216;2024-01-30T01:20:20;11.45;;;5.60;;
32032;SDS011;31720;52.638;9.216;2024-01-30T01:23:22;14.15;;;6.70;;
32032;SDS011;31720;52.638;9.216;2024-01-30T01:26:24;11.30;;;6.22;;
32032;SDS011;31720;52.638;9.216;2024-01-30T01:29:26;12.93;;;6.00;;
32032;SDS011;31720;52.638;9.216;2024-01-30T01:32:28;11.32;;;5.25;;
32032;SDS011;31720;52.638;9.216;2024-01-30T01:35:30;17.25;;;6.38;;
32032;SDS011;31720;52.638;9.216;2024-01-30T01:38:31;18.35;;;6.80;;
32032;SDS011;31720;52.638;9.216;2024-01-30T01:41:34;13.95;;;6.15;;
32032;SDS011;31720;52.638;9.216;2024-01-30T01:44:35;15.07;;;6.68;;
32032;SDS011;31720;52.638;9.216;2024-01-30T01:47:37;16.23;;;6.85;;
32032;SDS011;31720;52.638;9.216;2024-01-30T01:50:39;13.60;;;6.40;;
32032;SDS011;31720;52.638;9.216;2024-01-30T01:53:40;13.32;;;6.55;;
32032;SDS011;31720;52.638;9.216;2024-01-30T01:56:43;12.35;;;5.97;;
32032;SDS011;31720;52.638;9.216;2024-01-30T01:59:45;12.35;;;6.43;;
32032;SDS011;31720;52.638;9.216;2024-01-30T02:02:46;10.07;;;5.57;;
32032;SDS011;31720;52.638;9.216;2024-01-30T02:05:48;15.38;;;5.85;;
32032;SDS011;31720;52.638;9.216;2024-01-30T02:08:51;11.32;;;5.35;;
32032;SDS011;31720;52.638;9.216;2024-01-30T02:11:54;13.93;;;6.13;;
32032;SDS011;31720;52.638;9.216;2024-01-30T02:14:56;12.30;;;5.70;;
32032;SDS011;31720;52.638;9.216;2024-01-30T02:17:57;11.82;;;5.40;;
32032;SDS011;31720;52.638;9.216;2024-01-30T02:20:59;14.13;;;6.45;;
32032;SDS011;31720;52.638;9.216;2024-01-30T02:24:05;13.80;;;5.97;;
32032;SDS011;31720;52.638;9.216;2024-01-30T02:27:07;12.70;;;6.03;;
32032;SDS011;31720;52.638;9.216;2024-01-30T02:30:09;10.93;;;5.20;;
32032;SDS011;31720;52.638;9.216;2024-01-30T02:33:11;14.27;;;6.13;;
32032;SDS011;31720;52.638;9.216;2024-01-30T02:36:14;18.60;;;6.95;;
32032;SDS011;31720;52.638;9.216;2024-01-30T02:39:15;16.27;;;6.45;;
32032;SDS011;31720;52.638;9.216;2024-01-30T02:42:16;12.90;;;6.13;;
32032;SDS011;31720;52.638;9.216;2024-01-30T02:45:18;10.60;;;5.85;;
32032;SDS011;31720;52.638;9.216;2024-01-30T02:48:19;16.05;;;6.70;;
32032;SDS011;31720;52.638;9.216;2024-01-30T02:51:22;12.10;;;6.03;;
32032;SDS011;31720;52.638;9.216;2024-01-30T02:54:23;13.48;;;5.93;;
32032;SDS011;31720;52.638;9.216;2024-01-30T02:57:24;11.27;;;6.65;;
32032;SDS011;31720;52.638;9.216;2024-01-30T03:00:26;13.55;;;6.80;;
32032;SDS011;31720;52.638;9.216;2024-01-30T03:03:27;14.35;;;6.60;;
32032;SDS011;31720;52.638;9.216;2024-01-30T03:06:30;15.90;;;6.30;;
32032;SDS011;31720;52.638;9.216;2024-01-30T03:09:31;10.48;;;5.93;;
32032;SDS011;31720;52.638;9.216;2024-01-30T03:12:33;12.52;;;5.97;;
32032;SDS011;31720;52.638;9.216;2024-01-30T03:15:34;10.25;;;5.45;;
32032;SDS011;31720;52.638;9.216;2024-01-30T03:18:35;14.65;;;5.15;;
32032;SDS011;31720;52.638;9.216;2024-01-30T03:21:38;17.15;;;6.80;;
32032;SDS011;31720;52.638;9.216;2024-01-30T03:24:39;13.90;;;6.93;;
32032;SDS011;31720;52.638;9.216;2024-01-30T03:27:41;12.52;;;5.82;;
32032;SDS011;31720;52.638;9.216;2024-01-30T03:30:42;18.27;;;6.55;;
32032;SDS011;31720;52.638;9.216;2024-01-30T03:33:43;15.43;;;6.35;;
32032;SDS011;31720;52.638;9.216;2024-01-30T03:36:46;9.95;;;5.60;;
32032;SDS011;31720;52.638;9.216;2024-01-30T03:39:47;12.75;;;5.35;;
32032;SDS011;31720;52.638;9.216;2024-01-30T03:42:49;11.32;;;5.55;;
32032;SDS011;31720;52.638;9.216;2024-01-30T03:45:50;12.57;;;5.18;;
32032;SDS011;31720;52.638;9.216;2024-01-30T03:48:52;10.65;;;6.30;;
32032;SDS011;31720;52.638;9.216;2024-01-30T03:51:54;11.63;;;6.53;;
32032;SDS011;31720;52.638;9.216;2024-01-30T03:54:56;10.25;;;5.13;;
32032;SDS011;31720;52.638;9.216;2024-01-30T03:57:57;12.93;;;6.32;;
32032;SDS011;31720;52.638;9.216;2024-01-30T04:00:58;14.07;;;6.22;;
32032;SDS011;31720;52.638;9.216;2024-01-30T04:03:59;9.05;;;5.63;;
32032;SDS011;31720;52.638;9.216;2024-01-30T04:07:02;14.80;;;6.65;;
32032;SDS011;31720;52.638;9.216;2024-01-30T04:10:04;21.17;;;8.60;;
32032;SDS011;31720;52.638;9.216;2024-01-30T04:13:06;24.23;;;9.95;;
32032;SDS011;31720;52.638;9.216;2024-01-30T04:16:08;26.00;;;9.38;;
32032;SDS011;31720;52.638;9.216;2024-01-30T04:19:09;17.83;;;8.27;;
32032;SDS011;31720;52.638;9.216;2024-01-30T04:22:12;11.10;;;6.03;;
32032;SDS011;31720;52.638;9.216;2024-01-30T04:25:13;12.32;;;6.20;;
32032;SDS011;31720;52.638;9.216;2024-01-30T04:28:14;13.23;;;6.15;;
32032;SDS011;31720;52.638;9.216;2024-01-30T04:31:16;14.88;;;6.28;;
32032;SDS011;31720;52.638;9.216;2024-01-30T04:34:17;12.07;;;6.30;;
32032;SDS011;31720;52.638;9.216;2024-01-30T04:37:20;11.15;;;5.55;;
32032;SDS011;31720;52.638;9.216;2024-01-30T04:40:21;12.77;;;6.65;;
32032;SDS011;31720;52.638;9.216;2024-01-30T04:43:23;13.05;;;6.15;;
32032;SDS011;31720;52.638;9.216;2024-01-30T04:46:24;10.73;;;6.22;;
32032;SDS011;31720;52.638;9.216;2024-01-30T04:49:25;15.07;;;7.40;;
32032;SDS011;31720;52.638;9.216;2024-01-30T04:52:28;13.25;;;7.43;;
32032;SDS011;31720;52.638;9.216;2024-01-30T04:55:29;14.30;;;6.15;;
32032;SDS011;31720;52.638;9.216;2024-01-30T04:58:31;12.23;;;6.10;;
32032;SDS011;31720;52.638;9.216;2024-01-30T05:01:32;16.10;;;5.55;;
32032;SDS011;31720;52.638;9.216;2024-01-30T05:04:33;16.95;;;6.85;;
32032;SDS011;31720;52.638;9.216;2024-01-30T05:07:36;14.68;;;6.13;;
32032;SDS011;31720;52.638;9.216;2024-01-30T05:10:38;14.35;;;6.13;;
32032;SDS011;31720;52.638;9.216;2024-01-30T05:13:39;17.73;;;6.20;;
32032;SDS011;31720;52.638;9.216;2024-01-30T05:16:40;12.77;;;6.20;;
32032;SDS011;31720;52.638;9.216;2024-01-30T05:19:43;10.98;;;5.40;;
32032;SDS011;31720;52.638;9.216;2024-01-30T05:22:45;14.90;;;6.63;;
32032;SDS011;31720;52.638;9.216;2024-01-30T05:25:47;13.88;;;6.13;;
32032;SDS011;31720;52.638;9.216;2024-01-30T05:28:48;12.10;;;6.20;;
32032;SDS011;31720;52.638;9.216;2024-01-30T05:31:49;13.13;;;6.65;;
32032;SDS011;31720;52.638;9.216;2024-01-30T05:34:51;13.65;;;6.30;;
32032;SDS011;31720;52.638;9.216;2024-01-30T05:37:54;19.92;;;7.40;;
32032;SDS011;31720;52.638;9.216;2024-01-30T05:40:55;14.10;;;6.47;;
32032;SDS011;31720;52.638;9.216;2024-01-30T05:43:58;12.25;;;6.38;;
32032;SDS011;31720;52.638;9.216;2024-01-30T05:46:59;12.95;;;6.65;;
32032;SDS011;31720;52.638;9.216;2024-01-30T05:50:00;13.55;;;5.95;;
32032;SDS011;31720;52.638;9.216;2024-01-30T05:53:03;16.45;;;6.68;;
32032;SDS011;31720;52.638;9.216;2024-01-30T05:56:05;11.65;;;6.47;;
32032;SDS011;31720;52.638;9.216;2024-01-30T05:59:06;14.75;;;7.13;;
32032;SDS011;31720;52.638;9.216;2024-01-30T06:02:08;11.65;;;6.07;;
32032;SDS011;31720;52.638;9.216;2024-01-30T06:05:09;16.17;;;7.40;;
32032;SDS011;31720;52.638;9.216;2024-01-30T06:08:12;13.52;;;6.18;;
32032;SDS011;31720;52.638;9.216;2024-01-30T06:11:14;13.13;;;6.38;;
32032;SDS011;31720;52.638;9.216;2024-01-30T06:14:15;12.93;;;6.10;;
32032;SDS011;31720;52.638;9.216;2024-01-30T06:17:16;19.08;;;6.65;;
32032;SDS011;31720;52.638;9.216;2024-01-30T06:20:17;14.48;;;6.63;;
32032;SDS011;31720;52.638;9.216;2024-01-30T06:23:21;12.40;;;6.35;;
32032;SDS011;31720;52.638;9.216;2024-01-30T06:26:22;11.77;;;6.68;;
32032;SDS011;31720;52.638;9.216;2024-01-30T06:29:23;13.95;;;7.25;;
32032;SDS011;31720;52.638;9.216;2024-01-30T06:32:26;10.93;;;5.38;;
32032;SDS011;31720;52.638;9.216;2024-01-30T06:35:28;15.23;;;6.30;;
32032;SDS011;31720;52.638;9.216;2024-01-30T06:38:31;13.60;;;6.75;;
32032;SDS011;31720;52.638;9.216;2024-01-30T06:41:32;14.30;;;7.55;;
32032;SDS011;31720;52.638;9.216;2024-01-30T06:44:34;15.20;;;7.05;;
32032;SDS011;31720;52.638;9.216;2024-01-30T06:47:35;16.02;;;6.30;;
32032;SDS011;31720;52.638;9.216;2024-01-30T06:50:36;23.92;;;7.50;;
32032;SDS011;31720;52.638;9.216;2024-01-30T06:53:39;11.55;;;6.25;;
32032;SDS011;31720;52.638;9.216;2024-01-30T06:56:40;11.07;;;6.15;;
32032;SDS011;31720;52.638;9.216;2024-01-30T06:59:42;14.30;;;6.43;;
32032;SDS011;31720;52.638;9.216;2024-01-30T07:02:44;13.93;;;6.65;;
32032;SDS011;31720;52.638;9.216;2024-01-30T07:05:45;16.05;;;7.22;;
32032;SDS011;31720;52.638;9.216;2024-01-30T07:08:48;18.70;;;6.13;;
32032;SDS011;31720;52.638;9.216;2024-01-30T07:11:49;13.70;;;6.63;;
32032;SDS011;31720;52.638;9.216;2024-01-30T07:14:51;17.17;;;7.72;;
32032;SDS011;31720;52.638;9.216;2024-01-30T07:17:52;14.70;;;6.75;;
32032;SDS011;31720;52.638;9.216;2024-01-30T07:20:54;14.32;;;6.50;;
32032;SDS011;31720;52.638;9.216;2024-01-30T07:23:56;18.02;;;8.00;;
32032;SDS011;31720;52.638;9.216;2024-01-30T07:26:58;14.70;;;7.03;;
32032;SDS011;31720;52.638;9.216;2024-01-30T07:29:59;14.52;;;7.03;;
32032;SDS011;31720;52.638;9.216;2024-01-30T07:33:00;15.13;;;7.45;;
32032;SDS011;31720;52.638;9.216;2024-01-30T07:36:02;14.60;;;6.57;;
32032;SDS011;31720;52.638;9.216;2024-01-30T07:39:04;13.80;;;6.60;;
32032;SDS011;31720;52.638;9.216;2024-01-30T07:42:06;18.90;;;7.30;;
32032;SDS011;31720;52.638;9.216;2024-01-30T07:45:09;15.10;;;7.70;;
32032;SDS011;31720;52.638;9.216;2024-01-30T07:48:10;19.30;;;8.30;;
32032;SDS011;31720;52.638;9.216;2024-01-30T07:51:11;14.20;;;7.20;;
32032;SDS011;31720;52.638;9.216;2024-01-30T07:54:14;25.17;;;7.68;;
32032;SDS011;31720;52.638;9.216;2024-01-30T07:57:16;21.92;;;8.40;;
32032;SDS011;31720;52.638;9.216;2024-01-30T08:00:18;21.50;;;8.23;;
32032;SDS011;31720;52.638;9.216;2024-01-30T08:03:19;17.27;;;8.10;;
32032;SDS011;31720;52.638;9.216;2024-01-30T08:06:20;16.92;;;8.48;;
32032;SDS011;31720;52.638;9.216;2024-01-30T08:09:23;17.20;;;7.93;;
32032;SDS011;31720;52.638;9.216;2024-01-30T08:12:24;20.92;;;9.00;;
32032;SDS011;31720;52.638;9.216;2024-01-30T08:15:26;17.50;;;8.40;;
32032;SDS011;31720;52.638;9.216;2024-01-30T08:18:27;20.60;;;8.77;;
32032;SDS011;31720;52.638;9.216;2024-01-30T08:21:28;15.25;;;7.63;;
32032;SDS011;31720;52.638;9.216;2024-01-30T08:24:31;19.25;;;8.35;;
32032;SDS011;31720;52.638;9.216;2024-01-30T08:27:32;16.38;;;8.48;;
32032;SDS011;31720;52.638;9.216;2024-01-30T08:30:35;16.75;;;7.75;;
32032;SDS011;31720;52.638;9.216;2024-01-30T08:33:36;15.57;;;8.15;;
32032;SDS011;31720;52.638;9.216;2024-01-30T08:36:37;17.73;;;7.95;;
32032;SDS011;31720;52.638;9.216;2024-01-30T08:39:40;21.77;;;8.07;;
32032;SDS011;31720;52.638;9.216;2024-01-30T08:42:42;14.65;;;7.93;;
32032;SDS011;31720;52.638;9.216;2024-01-30T08:45:43;20.90;;;7.75;;
32032;SDS011;31720;52.638;9.216;2024-01-30T08:48:44;20.40;;;7.28;;
32032;SDS011;31720;52.638;9.216;2024-01-30T08:51:47;12.80;;;7.03;;
32032;SDS011;31720;52.638;9.216;2024-01-30T08:54:51;20.25;;;8.27;;
32032;SDS011;31720;52.638;9.216;2024-01-30T08:57:53;18.45;;;8.32;;
32032;SDS011;31720;52.638;9.216;2024-01-30T09:00:54;19.55;;;8.60;;
32032;SDS011;31720;52.638;9.216;2024-01-30T09:03:55;18.50;;;7.50;;
32032;SDS011;31720;52.638;9.216;2024-01-30T09:06:56;18.98;;;7.90;;
32032;SDS011;31720;52.638;9.216;2024-01-30T09:09:59;17.90;;;8.57;;
32032;SDS011;31720;52.638;9.216;2024-01-30T09:13:00;15.35;;;6.93;;
32032;SDS011;31720;52.638;9.216;2024-01-30T09:16:02;20.27;;;7.50;;
32032;SDS011;31720;52.638;9.216;2024-01-30T09:19:04;16.40;;;8.18;;
32032;SDS011;31720;52.638;9.216;2024-01-30T09:22:05;12.57;;;6.53;;
32032;SDS011;31720;52.638;9.216;2024-01-30T09:25:08;18.20;;;7.70;;
32032;SDS011;31720;52.638;9.216;2024-01-30T09:28:09;13.90;;;6.45;;
32032;SDS011;31720;52.638;9.216;2024-01-30T09:31:11;13.77;;;6.82;;
32032;SDS011;31720;52.638;9.216;2024-01-30T09:34:13;23.33;;;8.20;;
32032;SDS011;31720;52.638;9.216;2024-01-30T09:37:14;16.70;;;7.50;;
32032;SDS011;31720;52.638;9.216;2024-01-30T09:40:19;16.58;;;7.60;;
32032;SDS011;31720;52.638;9.216;2024-01-30T09:43:21;15.32;;;7.00;;
32032;SDS011;31720;52.638;9.216;2024-01-30T09:46:24;17.73;;;7.65;;
32032;SDS011;31720;52.638;9.216;2024-01-30T09:49:28;14.13;;;7.18;;
32032;SDS011;31720;52.638;9.216;2024-01-30T09:52:30;13.38;;;7.07;;
32032;SDS011;31720;52.638;9.216;2024-01-30T09:55:33;16.52;;;7.47;;
32032;SDS011;31720;52.638;9.216;2024-01-30T09:58:36;16.77;;;6.72;;
32032;SDS011;31720;52.638;9.216;2024-01-30T10:01:39;14.93;;;7.47;;
32032;SDS011;31720;52.638;9.216;2024-01-30T10:04:41;13.50;;;6.47;;
32032;SDS011;31720;52.638;9.216;2024-01-30T10:07:49;14.18;;;6.70;;
32032;SDS011;31720;52.638;9.216;2024-01-30T10:10:52;12.38;;;5.38;;
32032;SDS011;31720;52.638;9.216;2024-01-30T10:13:54;12.95;;;6.10;;
32032;SDS011;31720;52.638;9.216;2024-01-30T10:16:55;18.52;;;7.85;;
32032;SDS011;31720;52.638;9.216;2024-01-30T10:19:58;12.73;;;6.90;;
32032;SDS011;31720;52.638;9.216;2024-01-30T10:22:59;11.77;;;5.72;;
32032;SDS011;31720;52.638;9.216;2024-01-30T10:26:02;14.05;;;6.55;;
32032;SDS011;31720;52.638;9.216;2024-01-30T10:29:03;13.55;;;6.78;;
32032;SDS011;31720;52.638;9.216;2024-01-30T10:32:05;13.10;;;5.57;;
32032;SDS011;31720;52.638;9.216;2024-01-30T10:35:07;13.45;;;5.85;;
32032;SDS011;31720;52.638;9.216;2024-01-30T10:38:08;14.05;;;6.10;;
32032;SDS011;31720;52.638;9.216;2024-01-30T10:41:16;15.65;;;6.60;;
32032;SDS011;31720;52.638;9.216;2024-01-30T10:44:25;12.60;;;5.80;;
32032;SDS011;31720;52.638;9.216;2024-01-30T10:47:31;16.40;;;6.88;;
32032;SDS011;31720;52.638;9.216;2024-01-30T10:50:35;8.23;;;4.78;;
32032;SDS011;31720;52.638;9.216;2024-01-30T10:53:38;11.90;;;6.15;;
32032;SDS011;31720;52.638;9.216;2024-01-30T10:56:41;11.07;;;5.25;;
32032;SDS011;31720;52.638;9.216;2024-01-30T10:59:43;16.02;;;6.40;;
32032;SDS011;31720;52.638;9.216;2024-01-30T11:02:47;14.45;;;5.88;;
32032;SDS011;31720;52.638;9.216;2024-01-30T11:05:49;8.13;;;4.88;;
32032;SDS011;31720;52.638;9.216;2024-01-30T11:08:59;14.25;;;5.38;;
32032;SDS011;31720;52.638;9.216;2024-01-30T11:12:03;13.82;;;5.47;;
32032;SDS011;31720;52.638;9.216;2024-01-30T11:15:06;9.70;;;4.65;;
32032;SDS011;31720;52.638;9.216;2024-01-30T11:18:08;15.48;;;5.22;;
32032;SDS011;31720;52.638;9.216;2024-01-30T11:21:10;10.75;;;4.50;;
32032;SDS011;31720;52.638;9.216;2024-01-30T11:24:14;10.05;;;4.70;;
32032;SDS011;31720;52.638;9.216;2024-01-30T11:27:17;11.82;;;5.20;;
32032;SDS011;31720;52.638;9.216;2024-01-30T11:30:22;9.75;;;5.35;;
32032;SDS011;31720;52.638;9.216;2024-01-30T11:33:28;12.35;;;5.20;;
32032;SDS011;31720;52.638;9.216;2024-01-30T11:36:31;12.80;;;4.82;;
32032;SDS011;31720;52.638;9.216;2024-01-30T11:39:37;12.05;;;5.13;;
32032;SDS011;31720;52.638;9.216;2024-01-30T11:42:40;8.23;;;4.63;;
32032;SDS011;31720;52.638;9.216;2024-01-30T11:45:43;9.60;;;5.07;;
32032;SDS011;31720;52.638;9.216;2024-01-30T11:48:45;11.02;;;5.03;;
32032;SDS011;31720;52.638;9.216;2024-01-30T11:51:46;9.07;;;4.35;;
32032;SDS011;31720;52.638;9.216;2024-01-30T11:54:49;9.43;;;4.90;;
32032;SDS011;31720;52.638;9.216;2024-01-30T11:57:51;8.07;;;4.10;;
32032;SDS011;31720;52.638;9.216;2024-01-30T12:00:56;9.00;;;4.63;;
32032;SDS011;31720;52.638;9.216;2024-01-30T12:03:57;8.10;;;4.25;;
32032;SDS011;31720;52.638;9.216;2024-01-30T12:07:01;8.63;;;4.38;;
32032;SDS011;31720;52.638;9.216;2024-01-30T12:10:03;9.45;;;5.40;;
32032;SDS011;31720;52.638;9.216;2024-01-30T12:13:06;10.73;;;4.65;;
32032;SDS011;31720;52.638;9.216;2024-01-30T12:16:08;8.20;;;4.50;;
32032;SDS011;31720;52.638;9.216;2024-01-30T12:19:09;6.97;;;4.60;;
32032;SDS011;31720;52.638;9.216;2024-01-30T12:22:11;13.55;;;4.90;;
32032;SDS011;31720;52.638;9.216;2024-01-30T12:25:13;10.88;;;4.97;;
32032;SDS011;31720;52.638;9.216;2024-01-30T12:28:17;9.30;;;4.90;;
32032;SDS011;31720;52.638;9.216;2024-01-30T12:31:18;9.43;;;4.63;;
32032;SDS011;31720;52.638;9.216;2024-01-30T12:34:26;15.80;;;4.90;;
32032;SDS011;31720;52.638;9.216;2024-01-30T12:37:28;10.60;;;4.63;;
32032;SDS011;31720;52.638;9.216;2024-01-30T12:40:29;10.23;;;4.75;;
32032;SDS011;31720;52.638;9.216;2024-01-30T12:43:35;6.10;;;3.78;;
32032;SDS011;31720;52.638;9.216;2024-01-30T12:46:37;13.50;;;5.03;;
32032;SDS011;31720;52.638;9.216;2024-01-30T12:49:38;11.32;;;4.88;;
32032;SDS011;31720;52.638;9.216;2024-01-30T12:52:39;13.18;;;4.45;;
32032;SDS011;31720;52.638;9.216;2024-01-30T12:55:41;8.20;;;4.38;;
32032;SDS011;31720;52.638;9.216;2024-01-30T12:58:43;8.25;;;4.22;;
32032;SDS011;31720;52.638;9.216;2024-01-30T13:01:45;9.10;;;5.25;;
32032;SDS011;31720;52.638;9.216;2024-01-30T13:04:46;7.38;;;4.80;;
32032;SDS011;31720;52.638;9.216;2024-01-30T13:07:48;8.98;;;4.65;;
32032;SDS011;31720;52.638;9.216;2024-01-30T13:10:49;15.45;;;4.47;;
32032;SDS011;31720;52.638;9.216;2024-01-30T13:13:52;7.65;;;4.22;;
32032;SDS011;31720;52.638;9.216;2024-01-30T13:16:53;10.82;;;4.20;;
32032;SDS011;31720;52.638;9.216;2024-01-30T13:19:55;11.20;;;4.90;;
32032;SDS011;31720;52.638;9.216;2024-01-30T13:22:56;9.73;;;3.97;;
32032;SDS011;31720;52.638;9.216;2024-01-30T13:25:58;10.13;;;4.13;;
32032;SDS011;31720;52.638;9.216;2024-01-30T13:29:00;14.15;;;4.25;;
32032;SDS011;31720;52.638;9.216;2024-01-30T13:32:02;10.15;;;5.25;;
32032;SDS011;31720;52.638;9.216;2024-01-30T13:35:04;10.48;;;5.40;;
32032;SDS011;31720;52.638;9.216;2024-01-30T13:38:05;7.40;;;4.32;;
32032;SDS011;31720;52.638;9.216;2024-01-30T13:41:07;8.63;;;4.00;;
32032;SDS011;31720;52.638;9.216;2024-01-30T13:44:09;7.63;;;4.20;;
32032;SDS011;31720;52.638;9.216;2024-01-30T13:47:11;16.52;;;4.70;;
32032;SDS011;31720;52.638;9.216;2024-01-30T13:50:12;9.32;;;5.25;;
32032;SDS011;31720;52.638;9.216;2024-01-30T13:53:16;6.80;;;4.05;;
32032;SDS011;31720;52.638;9.216;2024-01-30T13:59:27;10.48;;;4.28;;
32032;SDS011;31720;52.638;9.216;2024-01-30T14:02:28;12.55;;;4.47;;
32032;SDS011;31720;52.638;9.216;2024-01-30T14:05:29;12.18;;;4.50;;
32032;SDS011;31720;52.638;9.216;2024-01-30T14:08:31;11.93;;;4.85;;
32032;SDS011;31720;52.638;9.216;2024-01-30T14:11:32;10.65;;;5.20;;
32032;SDS011;31720;52.638;9.216;2024-01-30T14:14:35;8.05;;;4.13;;
32032;SDS011;31720;52.638;9.216;2024-01-30T14:17:36;14.30;;;5.15;;
32032;SDS011;31720;52.638;9.216;2024-01-30T14:20:38;11.60;;;5.68;;
32032;SDS011;31720;52.638;9.216;2024-01-30T14:23:39;9.25;;;4.43;;
32032;SDS011;31720;52.638;9.216;2024-01-30T14:26:40;24.42;;;5.32;;
32032;SDS011;31720;52.638;9.216;2024-01-30T14:29:44;17.20;;;5.88;;
32032;SDS011;31720;52.638;9.216;2024-01-30T14:32:45;12.30;;;4.88;;
32032;SDS011;31720;52.638;9.216;2024-01-30T14:35:47;8.88;;;5.32;;
32032;SDS011;31720;52.638;9.216;2024-01-30T14:38:48;9.32;;;4.03;;
32032;SDS011;31720;52.638;9.216;2024-01-30T14:41:50;8.00;;;4.22;;
32032;SDS011;31720;52.638;9.216;2024-01-30T14:44:53;14.30;;;5.78;;
32032;SDS011;31720;52.638;9.216;2024-01-30T14:47:54;9.85;;;4.90;;
32032;SDS011;31720;52.638;9.216;2024-01-30T14:50:56;11.35;;;5.30;;
32032;SDS011;31720;52.638;9.216;2024-01-30T14:53:57;12.90;;;5.55;;
32032;SDS011;31720;52.638;9.216;2024-01-30T14:57:00;13.57;;;5.40;;
32032;SDS011;31720;52.638;9.216;2024-01-30T15:00:03;11.18;;;5.57;;
32032;SDS011;31720;52.638;9.216;2024-01-30T15:03:05;14.10;;;6.32;;
32032;SDS011;31720;52.638;9.216;2024-01-30T15:06:08;10.43;;;5.68;;
32032;SDS011;31720;52.638;9.216;2024-01-30T15:09:09;18.13;;;6.15;;
32032;SDS011;31720;52.638;9.216;2024-01-30T15:12:11;13.35;;;6.55;;
32032;SDS011;31720;52.638;9.216;2024-01-30T15:15:13;15.85;;;6.95;;
32032;SDS011;31720;52.638;9.216;2024-01-30T15:18:15;13.32;;;6.22;;
32032;SDS011;31720;52.638;9.216;2024-01-30T15:21:16;16.23;;;6.03;;
32032;SDS011;31720;52.638;9.216;2024-01-30T15:24:20;14.70;;;7.10;;
32032;SDS011;31720;52.638;9.216;2024-01-30T15:27:24;16.52;;;6.65;;
32032;SDS011;31720;52.638;9.216;2024-01-30T15:30:27;12.90;;;5.63;;
32032;SDS011;31720;52.638;9.216;2024-01-30T15:33:28;15.80;;;6.50;;
32032;SDS011;31720;52.638;9.216;2024-01-30T15:36:30;10.63;;;6.05;;
32032;SDS011;31720;52.638;9.216;2024-01-30T15:39:32;14.80;;;6.47;;
32032;SDS011;31720;52.638;9.216;2024-01-30T15:42:33;13.82;;;6.80;;
32032;SDS011;31720;52.638;9.216;2024-01-30T15:45:36;12.10;;;5.90;;
32032;SDS011;31720;52.638;9.216;2024-01-30T15:48:38;14.95;;;5.93;;
32032;SDS011;31720;52.638;9.216;2024-01-30T15:51:39;11.98;;;5.57;;
32032;SDS011;31720;52.638;9.216;2024-01-30T15:54:41;14.05;;;6.15;;
32032;SDS011;31720;52.638;9.216;2024-01-30T15:57:42;17.52;;;6.57;;
32032;SDS011;31720;52.638;9.216;2024-01-30T16:00:45;12.73;;;5.72;;
32032;SDS011;31720;52.638;9.216;2024-01-30T16:03:46;10.40;;;5.95;;
32032;SDS011;31720;52.638;9.216;2024-01-30T16:06:47;13.88;;;5.47;;
32032;SDS011;31720;52.638;9.216;2024-01-30T16:09:49;11.05;;;5.75;;
32032;SDS011;31720;52.638;9.216;2024-01-30T16:12:51;13.23;;;5.40;;
32032;SDS011;31720;52.638;9.216;2024-01-30T16:15:54;9.60;;;5.22;;
32032;SDS011;31720;52.638;9.216;2024-01-30T16:18:56;9.07;;;4.95;;
32032;SDS011;31720;52.638;9.216;2024-01-30T16:21:57;12.63;;;6.10;;
32032;SDS011;31720;52.638;9.216;2024-01-30T16:24:58;9.20;;;5.13;;
32032;SDS011;31720;52.638;9.216;2024-01-30T16:27:59;11.48;;;5.60;;
32032;SDS011;31720;52.638;9.216;2024-01-30T16:31:03;11.25;;;5.60;;
32032;SDS011;31720;52.638;9.216;2024-01-30T16:34:04;9.68;;;5.50;;
32032;SDS011;31720;52.638;9.216;2024-01-30T16:37:06;12.73;;;6.28;;
32032;SDS011;31720;52.638;9.216;2024-01-30T16:40:07;12.40;;;5.40;;
32032;SDS011;31720;52.638;9.216;2024-01-30T16:43:09;10.13;;;5.43;;
32032;SDS011;31720;52.638;9.216;2024-01-30T16:46:12;9.63;;;4.97;;
32032;SDS011;31720;52.638;9.216;2024-01-30T16:49:14;15.23;;;5.35;;
32032;SDS011;31720;52.638;9.216;2024-01-30T16:52:15;15.90;;;4.68;;
32032;SDS011;31720;52.638;9.216;2024-01-30T16:55:16;8.70;;;4.97;;
32032;SDS011;31720;52.638;9.216;2024-01-30T16:58:18;13.38;;;4.70;;
32032;SDS011;31720;52.638;9.216;2024-01-30T17:01:21;7.72;;;4.55;;
32032;SDS011;31720;52.638;9.216;2024-01-30T17:04:23;9.88;;;4.68;;
32032;SDS011;31720;52.638;9.216;2024-01-30T17:07:24;10.80;;;4.20;;
32032;SDS011;31720;52.638;9.216;2024-01-30T17:10:25;13.70;;;4.18;;
32032;SDS011;31720;52.638;9.216;2024-01-30T17:13:27;11.27;;;4.35;;
32032;SDS011;31720;52.638;9.216;2024-01-30T17:16:29;9.52;;;3.95;;
32032;SDS011;31720;52.638;9.216;2024-01-30T17:19:31;11.23;;;4.50;;
32032;SDS011;31720;52.638;9.216;2024-01-30T17:22:32;8.68;;;4.18;;
32032;SDS011;31720;52.638;9.216;2024-01-30T17:25:34;8.93;;;4.25;;
32032;SDS011;31720;52.638;9.216;2024-01-30T17:28:35;9.98;;;4.05;;
32032;SDS011;31720;52.638;9.216;2024-01-30T17:31:38;7.80;;;4.20;;
32032;SDS011;31720;52.638;9.216;2024-01-30T17:34:39;8.40;;;4.57;;
32032;SDS011;31720;52.638;9.216;2024-01-30T17:37:41;9.20;;;3.80;;
32032;SDS011;31720;52.638;9.216;2024-01-30T17:40:42;12.13;;;4.63;;
32032;SDS011;31720;52.638;9.216;2024-01-30T17:43:44;9.65;;;3.90;;
32032;SDS011;31720;52.638;9.216;2024-01-30T17:46:46;9.43;;;4.57;;
32032;SDS011;31720;52.638;9.216;2024-01-30T17:49:48;8.95;;;4.50;;
32032;SDS011;31720;52.638;9.216;2024-01-30T17:52:49;8.40;;;3.92;;
32032;SDS011;31720;52.638;9.216;2024-01-30T17:55:52;11.27;;;3.53;;
32032;SDS011;31720;52.638;9.216;2024-01-30T17:58:54;6.70;;;2.42;;
32032;SDS011;31720;52.638;9.216;2024-01-30T18:01:56;5.45;;;2.72;;
32032;SDS011;31720;52.638;9.216;2024-01-30T18:04:58;5.22;;;2.03;;